sensor_id;sensor_type;location;lat;lon;timestamp;temperature;humidity
6468;DHT22;3267;48.794;9.928;2023-11-21T07:47:35;10.50;99.90
6468;DHT22;3267;48.794;9.928;2023-11-21T07:50:06;9.90;99.90
6468;DHT22;3267;48.794;9.928;2023-11-21T07:52:33;10.30;99.90
6468;DHT22;3267;48.794;9.928;2023-11-21T07:57:25;10.50;99.90
6468;DHT22;3267;48.794;9.928;2023-11-21T07:59:51;10.50;99.90
6468;DHT22;3267;48.794;9.928;2023-11-21T08:02:19;10.30;99.90
6468;DHT22;3267;48.794;9.928;2023-11-21T08:04:46;10.40;99.90
6468;DHT22;3267;48.794;9.928;2023-11-21T08:07:17;10.10;99.90
6468;DHT22;3267;48.794;9.928;2023-11-21T08:09:47;10.40;99.90
6468;DHT22;3267;48.794;9.928;2023-11-21T08:12:15;10.50;99.90
6468;DHT22;3267;48.794;9.928;2023-11-21T08:14:41;10.60;99.90
6468;DHT22;3267;48.794;9.928;2023-11-21T08:17:06;10.70;99.90
6468;DHT22;3267;48.794;9.928;2023-11-21T08:19:32;10.70;99.90
6468;DHT22;3267;48.794;9.928;2023-11-21T08:21:58;10.80;99.90
6468;DHT22;3267;48.794;9.928;2023-11-21T08:24:24;10.60;99.90
6468;DHT22;3267;48.794;9.928;2023-11-21T08:26:53;10.60;99.90
6468;DHT22;3267;48.794;9.928;2023-11-21T08:29:19;10.60;99.90
6468;DHT22;3267;48.794;9.928;2023-11-21T08:31:45;10.80;99.90
6468;DHT22;3267;48.794;9.928;2023-11-21T08:34:12;10.90;99.90
6468;DHT22;3267;48.794;9.928;2023-11-21T08:36:42;11.00;99.90
6468;DHT22;3267;48.794;9.928;2023-11-21T08:39:08;11.00;99.90
6468;DHT22;3267;48.794;9.928;2023-11-21T08:41:35;11.10;99.90
6468;DHT22;3267;48.794;9.928;2023-11-21T08:44:02;10.90;99.90
6468;DHT22;3267;48.794;9.928;2023-11-21T08:46:32;11.20;99.90
6468;DHT22;3267;48.794;9.928;2023-11-21T08:49:01;11.00;99.90
6468;DHT22;3267;48.794;9.928;2023-11-21T08:51:27;10.80;99.90
6468;DHT22;3267;48.794;9.928;2023-11-21T08:58:46;11.10;99.90
6468;DHT22;3267;48.794;9.928;2023-11-21T09:01:13;11.10;99.90
6468;DHT22;3267;48.794;9.928;2023-11-21T09:03:39;11.10;99.90
6468;DHT22;3267;48.794;9.928;2023-11-21T09:06:05;11.20;99.90
6468;DHT22;3267;48.794;9.928;2023-11-21T09:08:31;11.20;99.90
6468;DHT22;3267;48.794;9.928;2023-11-21T09:13:23;11.20;99.90
6468;DHT22;3267;48.794;9.928;2023-11-21T09:15:50;11.00;99.90
6468;DHT22;3267;48.794;9.928;2023-11-21T09:18:16;11.20;99.90
6468;DHT22;3267;48.794;9.928;2023-11-21T09:20:42;11.00;99.90
6468;DHT22;3267;48.794;9.928;2023-11-21T09:23:12;11.00;99.90
6468;DHT22;3267;48.794;9.928;2023-11-21T09:25:39;11.10;99.90
6468;DHT22;3267;48.794;9.928;2023-11-21T09:28:05;11.00;99.90
6468;DHT22;3267;48.794;9.928;2023-11-21T09:30:34;11.10;99.90
6468;DHT22;3267;48.794;9.928;2023-11-21T09:33:01;11.20;99.90
6468;DHT22;3267;48.794;9.928;2023-11-21T09:35:28;11.20;99.90
6468;DHT22;3267;48.794;9.928;2023-11-21T09:37:54;11.20;99.90
6468;DHT22;3267;48.794;9.928;2023-11-21T09:40:22;11.10;99.90
6468;DHT22;3267;48.794;9.928;2023-11-21T09:42:56;11.20;99.90
6468;DHT22;3267;48.794;9.928;2023-11-21T09:45:29;11.20;99.90
6468;DHT22;3267;48.794;9.928;2023-11-21T09:48:00;11.10;99.90
6468;DHT22;3267;48.794;9.928;2023-11-21T09:50:26;11.20;99.90
6468;DHT22;3267;48.794;9.928;2023-11-21T09:53:07;11.50;99.90
6468;DHT22;3267;48.794;9.928;2023-11-21T09:55:37;11.40;99.90
6468;DHT22;3267;48.794;9.928;2023-11-21T09:58:05;11.20;99.90
6468;DHT22;3267;48.794;9.928;2023-11-21T10:00:33;11.50;99.90
6468;DHT22;3267;48.794;9.928;2023-11-21T10:03:00;10.70;99.90
6468;DHT22;3267;48.794;9.928;2023-11-21T10:05:28;11.40;99.90
6468;DHT22;3267;48.794;9.928;2023-11-21T10:07:56;11.60;99.90
6468;DHT22;3267;48.794;9.928;2023-11-21T10:10:23;11.50;99.90
6468;DHT22;3267;48.794;9.928;2023-11-21T10:12:55;11.70;99.90
6468;DHT22;3267;48.794;9.928;2023-11-21T10:15:23;11.70;99.90
6468;DHT22;3267;48.794;9.928;2023-11-21T10:17:50;11.70;99.90
6468;DHT22;3267;48.794;9.928;2023-11-21T10:20:19;11.60;99.90
6468;DHT22;3267;48.794;9.928;2023-11-21T10:25:14;11.60;99.90
6468;DHT22;3267;48.794;9.928;2023-11-21T10:27:40;11.70;99.90
6468;DHT22;3267;48.794;9.928;2023-11-21T10:30:07;11.80;99.90
6468;DHT22;3267;48.794;9.928;2023-11-21T10:32:41;11.80;99.90
6468;DHT22;3267;48.794;9.928;2023-11-21T10:35:07;11.60;99.90
6468;DHT22;3267;48.794;9.928;2023-11-21T10:37:36;11.50;99.90
6468;DHT22;3267;48.794;9.928;2023-11-21T10:40:09;11.50;99.90
6468;DHT22;3267;48.794;9.928;2023-11-21T10:42:39;11.80;99.90
6468;DHT22;3267;48.794;9.928;2023-11-21T10:45:06;11.60;99.90
6468;DHT22;3267;48.794;9.928;2023-11-21T10:47:39;11.70;99.90
6468;DHT22;3267;48.794;9.928;2023-11-21T10:50:05;11.50;99.90
6468;DHT22;3267;48.794;9.928;2023-11-21T10:52:34;11.70;99.90
6468;DHT22;3267;48.794;9.928;2023-11-21T10:55:01;11.80;99.90
6468;DHT22;3267;48.794;9.928;2023-11-21T10:57:29;11.70;99.90
6468;DHT22;3267;48.794;9.928;2023-11-21T10:59:55;11.90;99.90
6468;DHT22;3267;48.794;9.928;2023-11-21T11:02:24;11.80;99.90
6468;DHT22;3267;48.794;9.928;2023-11-21T11:04:58;12.20;99.90
6468;DHT22;3267;48.794;9.928;2023-11-21T11:07:26;11.80;99.90
6468;DHT22;3267;48.794;9.928;2023-11-21T11:09:55;12.20;99.90
6468;DHT22;3267;48.794;9.928;2023-11-21T11:12:22;12.30;99.90
6468;DHT22;3267;48.794;9.928;2023-11-21T11:14:49;12.20;99.90
6468;DHT22;3267;48.794;9.928;2023-11-21T11:17:14;12.40;99.90
6468;DHT22;3267;48.794;9.928;2023-11-21T11:22:36;12.50;99.90
6468;DHT22;3267;48.794;9.928;2023-11-21T11:28:11;12.50;99.90
6468;DHT22;3267;48.794;9.928;2023-11-21T11:30:55;12.60;99.90
6468;DHT22;3267;48.794;9.928;2023-11-21T11:33:40;12.60;99.90
6468;DHT22;3267;48.794;9.928;2023-11-21T11:36:33;12.60;99.90
6468;DHT22;3267;48.794;9.928;2023-11-21T11:39:00;12.60;99.90
6468;DHT22;3267;48.794;9.928;2023-11-21T11:41:31;12.70;99.90
6468;DHT22;3267;48.794;9.928;2023-11-21T11:44:03;12.70;99.90
6468;DHT22;3267;48.794;9.928;2023-11-21T11:46:43;12.50;99.90
6468;DHT22;3267;48.794;9.928;2023-11-21T11:49:23;12.70;99.90
6468;DHT22;3267;48.794;9.928;2023-11-21T11:54:55;12.90;99.90
6468;DHT22;3267;48.794;9.928;2023-11-21T11:57:24;12.90;99.90
6468;DHT22;3267;48.794;9.928;2023-11-21T12:00:15;13.00;99.90
6468;DHT22;3267;48.794;9.928;2023-11-21T12:02:57;13.20;99.90
6468;DHT22;3267;48.794;9.928;2023-11-21T12:05:25;13.10;99.90
6468;DHT22;3267;48.794;9.928;2023-11-21T12:07:54;13.10;99.90
6468;DHT22;3267;48.794;9.928;2023-11-21T12:10:25;13.20;99.90
6468;DHT22;3267;48.794;9.928;2023-11-21T12:12:52;13.30;99.90
6468;DHT22;3267;48.794;9.928;2023-11-21T12:15:18;13.40;99.90
6468;DHT22;3267;48.794;9.928;2023-11-21T12:17:46;13.40;99.90
6468;DHT22;3267;48.794;9.928;2023-11-21T12:20:19;13.40;99.90
6468;DHT22;3267;48.794;9.928;2023-11-21T12:22:49;13.70;99.90
6468;DHT22;3267;48.794;9.928;2023-11-21T12:25:23;13.50;99.90
6468;DHT22;3267;48.794;9.928;2023-11-21T12:27:52;13.50;99.90
6468;DHT22;3267;48.794;9.928;2023-11-21T12:30:19;13.50;99.90
6468;DHT22;3267;48.794;9.928;2023-11-21T12:32:51;16.20;99.90
6468;DHT22;3267;48.794;9.928;2023-11-21T12:35:23;15.10;99.90
6468;DHT22;3267;48.794;9.928;2023-11-21T12:37:51;15.50;99.90
6468;DHT22;3267;48.794;9.928;2023-11-21T12:40:18;13.50;99.90
6468;DHT22;3267;48.794;9.928;2023-11-21T12:42:47;13.50;99.90
6468;DHT22;3267;48.794;9.928;2023-11-21T12:47:47;13.40;99.90
6468;DHT22;3267;48.794;9.928;2023-11-21T12:50:19;15.70;99.90
6468;DHT22;3267;48.794;9.928;2023-11-21T12:52:50;13.40;99.90
6468;DHT22;3267;48.794;9.928;2023-11-21T12:55:20;15.10;99.90
6468;DHT22;3267;48.794;9.928;2023-11-21T12:57:52;14.70;99.90
6468;DHT22;3267;48.794;9.928;2023-11-21T13:00:27;14.80;99.90
6468;DHT22;3267;48.794;9.928;2023-11-21T13:02:59;14.60;99.90
6468;DHT22;3267;48.794;9.928;2023-11-21T13:05:27;13.40;99.90
6468;DHT22;3267;48.794;9.928;2023-11-21T13:08:07;13.40;99.90
6468;DHT22;3267;48.794;9.928;2023-11-21T13:10:40;13.30;99.90
6468;DHT22;3267;48.794;9.928;2023-11-21T13:13:19;13.30;99.90
6468;DHT22;3267;48.794;9.928;2023-11-21T13:16:01;13.30;99.90
6468;DHT22;3267;48.794;9.928;2023-11-21T13:18:30;13.30;99.90
6468;DHT22;3267;48.794;9.928;2023-11-21T13:21:04;13.80;99.90
6468;DHT22;3267;48.794;9.928;2023-11-21T13:23:38;13.20;99.90
6468;DHT22;3267;48.794;9.928;2023-11-21T13:26:04;13.50;99.90
6468;DHT22;3267;48.794;9.928;2023-11-21T13:28:33;13.20;99.90
6468;DHT22;3267;48.794;9.928;2023-11-21T13:31:03;13.10;99.90
6468;DHT22;3267;48.794;9.928;2023-11-21T13:33:38;13.10;99.90
6468;DHT22;3267;48.794;9.928;2023-11-21T13:36:07;13.10;99.90
6468;DHT22;3267;48.794;9.928;2023-11-21T13:38:35;13.00;99.90
6468;DHT22;3267;48.794;9.928;2023-11-21T13:41:02;13.00;99.90
6468;DHT22;3267;48.794;9.928;2023-11-21T13:43:32;13.00;99.90
6468;DHT22;3267;48.794;9.928;2023-11-21T13:46:00;12.90;99.90
6468;DHT22;3267;48.794;9.928;2023-11-21T13:48:30;12.90;99.90
6468;DHT22;3267;48.794;9.928;2023-11-21T13:51:13;12.80;99.90
6468;DHT22;3267;48.794;9.928;2023-11-21T13:53:46;12.70;99.90
6468;DHT22;3267;48.794;9.928;2023-11-21T13:56:15;12.60;99.90
6468;DHT22;3267;48.794;9.928;2023-11-21T13:58:49;12.50;99.90
6468;DHT22;3267;48.794;9.928;2023-11-21T14:01:24;12.60;99.90
6468;DHT22;3267;48.794;9.928;2023-11-21T14:03:59;15.00;99.90
6468;DHT22;3267;48.794;9.928;2023-11-21T14:06:38;12.50;99.90
6468;DHT22;3267;48.794;9.928;2023-11-21T14:09:14;12.50;99.90
6468;DHT22;3267;48.794;9.928;2023-11-21T14:11:49;13.80;99.90
6468;DHT22;3267;48.794;9.928;2023-11-21T14:14:15;12.50;99.90
6468;DHT22;3267;48.794;9.928;2023-11-21T14:16:43;12.50;99.90
6468;DHT22;3267;48.794;9.928;2023-11-21T14:19:10;12.50;99.90
6468;DHT22;3267;48.794;9.928;2023-11-21T14:21:41;12.50;99.90
6468;DHT22;3267;48.794;9.928;2023-11-21T14:24:23;12.60;99.90
6468;DHT22;3267;48.794;9.928;2023-11-21T14:26:50;12.50;99.90
6468;DHT22;3267;48.794;9.928;2023-11-21T14:29:18;12.50;99.90
6468;DHT22;3267;48.794;9.928;2023-11-21T14:31:49;12.50;99.90
6468;DHT22;3267;48.794;9.928;2023-11-21T14:34:16;12.50;99.90
6468;DHT22;3267;48.794;9.928;2023-11-21T14:36:43;12.40;99.90
6468;DHT22;3267;48.794;9.928;2023-11-21T14:39:10;12.40;99.90
6468;DHT22;3267;48.794;9.928;2023-11-21T14:41:49;12.40;99.90
6468;DHT22;3267;48.794;9.928;2023-11-21T14:44:15;12.30;99.90
6468;DHT22;3267;48.794;9.928;2023-11-21T14:46:41;12.30;99.90
6468;DHT22;3267;48.794;9.928;2023-11-21T14:49:12;12.30;99.90
6468;DHT22;3267;48.794;9.928;2023-11-21T14:51:53;12.30;99.90
6468;DHT22;3267;48.794;9.928;2023-11-21T14:54:26;12.20;99.90
6468;DHT22;3267;48.794;9.928;2023-11-21T14:57:07;12.20;99.90
6468;DHT22;3267;48.794;9.928;2023-11-21T14:59:44;12.20;99.90
6468;DHT22;3267;48.794;9.928;2023-11-21T15:02:13;12.20;99.90
6468;DHT22;3267;48.794;9.928;2023-11-21T15:04:41;12.10;99.90
6468;DHT22;3267;48.794;9.928;2023-11-21T15:07:08;12.20;99.90
6468;DHT22;3267;48.794;9.928;2023-11-21T15:09:35;12.10;99.90
6468;DHT22;3267;48.794;9.928;2023-11-21T15:12:06;12.20;99.90
6468;DHT22;3267;48.794;9.928;2023-11-21T15:14:45;12.10;99.90
6468;DHT22;3267;48.794;9.928;2023-11-21T15:17:16;12.00;99.90
6468;DHT22;3267;48.794;9.928;2023-11-21T15:19:51;12.10;99.90
6468;DHT22;3267;48.794;9.928;2023-11-21T15:22:17;11.80;99.90
6468;DHT22;3267;48.794;9.928;2023-11-21T15:24:43;12.00;99.90
6468;DHT22;3267;48.794;9.928;2023-11-21T15:27:12;11.90;99.90
6468;DHT22;3267;48.794;9.928;2023-11-21T15:29:42;11.80;99.90
6468;DHT22;3267;48.794;9.928;2023-11-21T15:32:09;11.90;99.90
6468;DHT22;3267;48.794;9.928;2023-11-21T15:34:35;11.80;99.90
6468;DHT22;3267;48.794;9.928;2023-11-21T15:37:06;11.80;99.90
6468;DHT22;3267;48.794;9.928;2023-11-21T15:39:39;11.80;99.90
6468;DHT22;3267;48.794;9.928;2023-11-21T15:42:05;11.80;99.90
6468;DHT22;3267;48.794;9.928;2023-11-21T15:44:33;11.90;99.90
6468;DHT22;3267;48.794;9.928;2023-11-21T15:46:59;11.80;99.90
6468;DHT22;3267;48.794;9.928;2023-11-21T15:51:53;11.80;99.90
6468;DHT22;3267;48.794;9.928;2023-11-21T15:54:20;11.90;99.90
6468;DHT22;3267;48.794;9.928;2023-11-21T15:56:51;11.80;99.90
6468;DHT22;3267;48.794;9.928;2023-11-21T15:59:25;11.90;99.90
6468;DHT22;3267;48.794;9.928;2023-11-21T16:01:55;11.90;99.90
6468;DHT22;3267;48.794;9.928;2023-11-21T16:04:22;11.30;99.90
6468;DHT22;3267;48.794;9.928;2023-11-21T16:06:49;11.80;99.90
6468;DHT22;3267;48.794;9.928;2023-11-21T16:09:14;11.80;99.90
6468;DHT22;3267;48.794;9.928;2023-11-21T16:12:03;11.80;99.90
6468;DHT22;3267;48.794;9.928;2023-11-21T16:14:30;12.00;99.90
6468;DHT22;3267;48.794;9.928;2023-11-21T16:17:07;11.90;99.90
6468;DHT22;3267;48.794;9.928;2023-11-21T16:19:33;11.90;99.90
6468;DHT22;3267;48.794;9.928;2023-11-21T16:21:59;11.70;99.90
6468;DHT22;3267;48.794;9.928;2023-11-21T16:24:26;11.70;99.90
6468;DHT22;3267;48.794;9.928;2023-11-21T16:26:53;11.70;99.90
6468;DHT22;3267;48.794;9.928;2023-11-21T16:29:21;11.70;99.90
6468;DHT22;3267;48.794;9.928;2023-11-21T16:31:47;11.50;99.90
6468;DHT22;3267;48.794;9.928;2023-11-21T16:34:23;11.70;99.90
6468;DHT22;3267;48.794;9.928;2023-11-21T16:36:49;11.70;99.90
6468;DHT22;3267;48.794;9.928;2023-11-21T16:39:15;11.70;99.90
6468;DHT22;3267;48.794;9.928;2023-11-21T16:41:47;11.90;99.90
6468;DHT22;3267;48.794;9.928;2023-11-21T16:44:20;11.50;99.90
6468;DHT22;3267;48.794;9.928;2023-11-21T16:46:51;11.80;99.90
6468;DHT22;3267;48.794;9.928;2023-11-21T16:49:21;11.80;99.90
6468;DHT22;3267;48.794;9.928;2023-11-21T16:51:47;11.70;99.90
6468;DHT22;3267;48.794;9.928;2023-11-21T16:54:13;13.10;99.90
6468;DHT22;3267;48.794;9.928;2023-11-21T16:56:40;11.70;99.90
6468;DHT22;3267;48.794;9.928;2023-11-21T16:59:06;11.70;99.90
6468;DHT22;3267;48.794;9.928;2023-11-21T17:01:32;11.80;99.90
6468;DHT22;3267;48.794;9.928;2023-11-21T17:06:24;11.80;99.90
6468;DHT22;3267;48.794;9.928;2023-11-21T17:08:54;11.70;99.90
6468;DHT22;3267;48.794;9.928;2023-11-21T17:13:47;11.50;99.90
6468;DHT22;3267;48.794;9.928;2023-11-21T17:18:38;11.70;99.90
6468;DHT22;3267;48.794;9.928;2023-11-21T17:21:04;11.60;99.90
6468;DHT22;3267;48.794;9.928;2023-11-21T17:23:31;11.40;99.90
6468;DHT22;3267;48.794;9.928;2023-11-21T17:25:56;11.50;99.90
6468;DHT22;3267;48.794;9.928;2023-11-21T17:28:23;11.40;99.90
6468;DHT22;3267;48.794;9.928;2023-11-21T17:30:54;11.50;99.90
6468;DHT22;3267;48.794;9.928;2023-11-21T17:33:24;11.40;99.90
6468;DHT22;3267;48.794;9.928;2023-11-21T17:35:57;11.50;99.90
6468;DHT22;3267;48.794;9.928;2023-11-21T17:38:27;11.30;99.90
6468;DHT22;3267;48.794;9.928;2023-11-21T17:40:55;10.90;99.90
6468;DHT22;3267;48.794;9.928;2023-11-21T17:48:14;11.30;99.90
6468;DHT22;3267;48.794;9.928;2023-11-21T17:50:40;11.30;99.90
6468;DHT22;3267;48.794;9.928;2023-11-21T17:53:07;11.30;99.90
6468;DHT22;3267;48.794;9.928;2023-11-21T17:55:34;11.20;99.90
6468;DHT22;3267;48.794;9.928;2023-11-21T17:58:00;11.30;99.90
6468;DHT22;3267;48.794;9.928;2023-11-21T18:00:26;11.40;99.90
6468;DHT22;3267;48.794;9.928;2023-11-21T18:02:53;13.20;99.90
6468;DHT22;3267;48.794;9.928;2023-11-21T18:05:19;11.30;99.90
6468;DHT22;3267;48.794;9.928;2023-11-21T18:07:46;11.10;99.90
6468;DHT22;3267;48.794;9.928;2023-11-21T18:10:13;11.30;99.90
6468;DHT22;3267;48.794;9.928;2023-11-21T18:12:38;11.30;99.90
6468;DHT22;3267;48.794;9.928;2023-11-21T18:15:04;11.30;99.90
6468;DHT22;3267;48.794;9.928;2023-11-21T18:17:30;11.40;99.90
6468;DHT22;3267;48.794;9.928;2023-11-21T18:19:56;11.20;99.90
6468;DHT22;3267;48.794;9.928;2023-11-21T18:22:22;14.80;99.90
6468;DHT22;3267;48.794;9.928;2023-11-21T18:24:50;11.20;99.90
6468;DHT22;3267;48.794;9.928;2023-11-21T18:27:18;11.20;99.90
6468;DHT22;3267;48.794;9.928;2023-11-21T18:29:44;11.20;99.90
6468;DHT22;3267;48.794;9.928;2023-11-21T18:32:10;11.10;99.90
6468;DHT22;3267;48.794;9.928;2023-11-21T18:34:40;11.20;99.90
6468;DHT22;3267;48.794;9.928;2023-11-21T18:37:06;11.10;99.90
6468;DHT22;3267;48.794;9.928;2023-11-21T18:39:32;11.10;99.90
6468;DHT22;3267;48.794;9.928;2023-11-21T18:41:59;11.10;99.90
6468;DHT22;3267;48.794;9.928;2023-11-21T18:44:25;11.10;99.90
6468;DHT22;3267;48.794;9.928;2023-11-21T18:46:52;11.30;99.90
6468;DHT22;3267;48.794;9.928;2023-11-21T18:49:18;11.10;99.90
6468;DHT22;3267;48.794;9.928;2023-11-21T18:51:47;14.00;99.90
6468;DHT22;3267;48.794;9.928;2023-11-21T18:54:16;11.10;99.90
6468;DHT22;3267;48.794;9.928;2023-11-21T18:56:41;11.10;99.90
6468;DHT22;3267;48.794;9.928;2023-11-21T18:59:09;11.20;99.90
6468;DHT22;3267;48.794;9.928;2023-11-21T19:01:36;11.20;99.90
6468;DHT22;3267;48.794;9.928;2023-11-21T19:04:01;11.10;99.90
6468;DHT22;3267;48.794;9.928;2023-11-21T19:06:27;11.20;99.90
6468;DHT22;3267;48.794;9.928;2023-11-21T19:08:53;11.10;99.90
6468;DHT22;3267;48.794;9.928;2023-11-21T19:11:20;11.00;99.90
6468;DHT22;3267;48.794;9.928;2023-11-21T19:13:49;11.10;99.90
6468;DHT22;3267;48.794;9.928;2023-11-21T19:16:14;11.10;99.90
6468;DHT22;3267;48.794;9.928;2023-11-21T19:18:44;10.80;99.90
6468;DHT22;3267;48.794;9.928;2023-11-21T19:21:16;11.10;99.90
6468;DHT22;3267;48.794;9.928;2023-11-21T19:23:45;11.10;99.90
6468;DHT22;3267;48.794;9.928;2023-11-21T19:26:11;11.00;99.90
6468;DHT22;3267;48.794;9.928;2023-11-21T19:28:38;11.00;99.90
6468;DHT22;3267;48.794;9.928;2023-11-21T19:31:04;12.00;99.90
6468;DHT22;3267;48.794;9.928;2023-11-21T19:33:33;11.00;99.90
6468;DHT22;3267;48.794;9.928;2023-11-21T19:36:00;14.50;99.90
6468;DHT22;3267;48.794;9.928;2023-11-21T19:38:25;11.20;99.90
6468;DHT22;3267;48.794;9.928;2023-11-21T19:40:51;11.00;99.90
6468;DHT22;3267;48.794;9.928;2023-11-21T19:43:17;11.00;99.90
6468;DHT22;3267;48.794;9.928;2023-11-21T19:45:43;11.00;99.90
6468;DHT22;3267;48.794;9.928;2023-11-21T19:48:08;13.90;99.90
6468;DHT22;3267;48.794;9.928;2023-11-21T19:53:00;11.00;99.90
6468;DHT22;3267;48.794;9.928;2023-11-21T19:55:26;10.90;99.90
6468;DHT22;3267;48.794;9.928;2023-11-21T19:57:52;11.00;99.90
6468;DHT22;3267;48.794;9.928;2023-11-21T20:00:18;11.00;99.90
6468;DHT22;3267;48.794;9.928;2023-11-21T20:02:44;10.90;99.90
6468;DHT22;3267;48.794;9.928;2023-11-21T20:05:10;11.00;99.90
6468;DHT22;3267;48.794;9.928;2023-11-21T20:07:40;11.00;99.90
6468;DHT22;3267;48.794;9.928;2023-11-21T20:10:08;11.10;99.90
6468;DHT22;3267;48.794;9.928;2023-11-21T20:12:34;10.70;99.90
6468;DHT22;3267;48.794;9.928;2023-11-21T20:14:59;10.90;99.90
6468;DHT22;3267;48.794;9.928;2023-11-21T20:17:25;10.90;99.90
6468;DHT22;3267;48.794;9.928;2023-11-21T20:19:53;10.90;99.90
6468;DHT22;3267;48.794;9.928;2023-11-21T20:22:20;10.80;99.90
6468;DHT22;3267;48.794;9.928;2023-11-21T20:24:46;11.00;99.90
6468;DHT22;3267;48.794;9.928;2023-11-21T20:27:13;10.90;99.90
6468;DHT22;3267;48.794;9.928;2023-11-21T20:29:40;11.20;99.90
6468;DHT22;3267;48.794;9.928;2023-11-21T20:32:07;10.90;99.90
6468;DHT22;3267;48.794;9.928;2023-11-21T20:34:34;10.90;99.90
6468;DHT22;3267;48.794;9.928;2023-11-21T20:37:00;10.90;99.90
6468;DHT22;3267;48.794;9.928;2023-11-21T20:39:25;10.80;99.90
6468;DHT22;3267;48.794;9.928;2023-11-21T20:44:17;10.70;99.90
6468;DHT22;3267;48.794;9.928;2023-11-21T20:46:43;10.80;99.90
6468;DHT22;3267;48.794;9.928;2023-11-21T20:49:10;10.80;99.90
6468;DHT22;3267;48.794;9.928;2023-11-21T20:51:36;10.70;99.90
6468;DHT22;3267;48.794;9.928;2023-11-21T20:54:02;10.80;99.90
6468;DHT22;3267;48.794;9.928;2023-11-21T20:56:30;10.80;99.90
6468;DHT22;3267;48.794;9.928;2023-11-21T20:58:57;10.80;99.90
6468;DHT22;3267;48.794;9.928;2023-11-21T21:01:23;10.70;99.90
6468;DHT22;3267;48.794;9.928;2023-11-21T21:03:48;10.70;99.90
6468;DHT22;3267;48.794;9.928;2023-11-21T21:06:14;10.70;99.90
6468;DHT22;3267;48.794;9.928;2023-11-21T21:08:40;10.60;99.90
6468;DHT22;3267;48.794;9.928;2023-11-21T21:11:05;10.70;99.90
6468;DHT22;3267;48.794;9.928;2023-11-21T21:13:35;10.60;99.90
6468;DHT22;3267;48.794;9.928;2023-11-21T21:16:01;10.40;99.90
6468;DHT22;3267;48.794;9.928;2023-11-21T21:18:27;10.60;99.90
6468;DHT22;3267;48.794;9.928;2023-11-21T21:20:53;10.60;99.90
6468;DHT22;3267;48.794;9.928;2023-11-21T21:23:20;10.50;99.90
6468;DHT22;3267;48.794;9.928;2023-11-21T21:25:49;12.20;99.90
6468;DHT22;3267;48.794;9.928;2023-11-21T21:28:16;10.60;99.90
6468;DHT22;3267;48.794;9.928;2023-11-21T21:30:43;10.50;99.90
6468;DHT22;3267;48.794;9.928;2023-11-21T21:33:09;10.50;99.90
6468;DHT22;3267;48.794;9.928;2023-11-21T21:35:35;10.50;99.90
6468;DHT22;3267;48.794;9.928;2023-11-21T21:38:00;12.00;99.90
6468;DHT22;3267;48.794;9.928;2023-11-21T21:40:27;10.40;99.90
6468;DHT22;3267;48.794;9.928;2023-11-21T21:42:55;10.40;99.90
6468;DHT22;3267;48.794;9.928;2023-11-21T21:45:22;10.30;99.90
6468;DHT22;3267;48.794;9.928;2023-11-21T21:47:48;10.80;99.90
6468;DHT22;3267;48.794;9.928;2023-11-21T21:50:17;10.40;99.90
6468;DHT22;3267;48.794;9.928;2023-11-21T21:52:44;10.50;99.90
6468;DHT22;3267;48.794;9.928;2023-11-21T21:55:11;10.30;99.90
6468;DHT22;3267;48.794;9.928;2023-11-21T21:57:40;10.30;99.90
6468;DHT22;3267;48.794;9.928;2023-11-21T22:00:06;10.30;99.90
6468;DHT22;3267;48.794;9.928;2023-11-21T22:02:35;10.30;99.90
6468;DHT22;3267;48.794;9.928;2023-11-21T22:05:01;10.30;99.90
6468;DHT22;3267;48.794;9.928;2023-11-21T22:07:27;10.30;99.90
6468;DHT22;3267;48.794;9.928;2023-11-21T22:09:52;10.20;99.90
6468;DHT22;3267;48.794;9.928;2023-11-21T22:12:21;10.30;99.90
6468;DHT22;3267;48.794;9.928;2023-11-21T22:14:47;10.20;99.90
6468;DHT22;3267;48.794;9.928;2023-11-21T22:17:13;10.20;99.90
6468;DHT22;3267;48.794;9.928;2023-11-21T22:19:40;10.20;99.90
6468;DHT22;3267;48.794;9.928;2023-11-21T22:22:06;10.30;99.90
6468;DHT22;3267;48.794;9.928;2023-11-21T22:24:32;10.10;99.90
6468;DHT22;3267;48.794;9.928;2023-11-21T22:26:59;10.20;99.90
6468;DHT22;3267;48.794;9.928;2023-11-21T22:29:26;10.10;99.90
